createdAt,value
2022-09-03T00:03:58.802Z,1.50
2022-09-03T00:09:04.884Z,1.85
2022-09-03T00:14:12.687Z,1.65
2022-09-03T00:19:18.194Z,1.60
2022-09-03T00:24:23.955Z,1.30
2022-09-03T00:29:28.284Z,1.48
2022-09-03T00:34:32.465Z,1.30
2022-09-03T00:39:37.074Z,1.10
2022-09-03T00:44:54.236Z,1.17
2022-09-03T00:50:01.129Z,1.23
2022-09-03T00:55:08.928Z,1.77
2022-09-03T01:00:12.270Z,1.20
2022-09-03T01:05:22.853Z,1.30
2022-09-03T01:10:32.368Z,1.23
2022-09-03T01:15:38.577Z,1.20
2022-09-03T01:20:50.824Z,1.25
2022-09-03T01:25:56.090Z,1.10
2022-09-03T01:31:13.526Z,1.38
2022-09-03T01:36:20.479Z,1.40
2022-09-03T01:41:45.677Z,1.20
2022-09-03T01:46:51.736Z,1.20
2022-09-03T01:51:57.534Z,1.25
2022-09-03T01:57:15.118Z,1.30
2022-09-03T02:02:35.366Z,1.00
2022-09-03T02:07:38.741Z,1.27
2022-09-03T02:17:47.565Z,1.10
2022-09-03T02:22:50.645Z,1.23
2022-09-03T02:27:53.748Z,1.30
2022-09-03T02:32:57.777Z,1.40
2022-09-03T02:38:10.357Z,2.08
2022-09-03T02:43:15.797Z,1.00
2022-09-03T02:48:21.449Z,1.10
2022-09-03T02:53:23.910Z,1.10
2022-09-03T02:58:26.617Z,1.20
2022-09-03T03:03:30.357Z,1.02
2022-09-03T03:08:34.743Z,1.33
2022-09-03T03:13:37.143Z,1.50
2022-09-03T03:18:40.882Z,1.00
2022-09-03T03:23:43.671Z,1.30
2022-09-03T03:28:46.851Z,1.60
2022-09-03T03:33:53.861Z,1.30
2022-09-03T03:38:56.792Z,1.02
2022-09-03T03:44:00.425Z,1.00
2022-09-03T03:49:04.838Z,1.05
2022-09-03T03:54:07.326Z,1.00
2022-09-03T03:59:09.739Z,1.20
2022-09-03T04:04:14.510Z,1.00
2022-09-03T04:09:16.884Z,1.15
2022-09-03T04:14:19.280Z,1.20
2022-09-03T04:19:24.231Z,1.38
2022-09-03T04:24:27.224Z,0.93
2022-09-03T04:29:30.744Z,1.20
2022-09-03T04:34:34.463Z,1.27
2022-09-03T04:39:36.908Z,1.10
2022-09-03T04:44:41.054Z,1.37
2022-09-03T04:49:44.980Z,1.17
2022-09-03T04:54:47.555Z,1.35
2022-09-03T04:59:50.023Z,1.00
2022-09-03T05:04:54.066Z,1.15
2022-09-03T05:09:56.901Z,1.13
2022-09-03T05:14:59.801Z,1.05
2022-09-03T05:20:03.871Z,1.10
2022-09-03T05:25:06.802Z,1.60
2022-09-03T05:30:09.632Z,1.23
2022-09-03T05:35:13.357Z,1.30
2022-09-03T05:40:15.879Z,1.20
2022-09-03T05:45:18.576Z,1.20
2022-09-03T05:50:22.399Z,1.42
2022-09-03T05:55:24.872Z,1.40
2022-09-03T06:00:27.821Z,1.43
2022-09-03T06:05:31.669Z,1.50
2022-09-03T06:10:40.666Z,1.63
2022-09-03T06:15:43.517Z,1.75
2022-09-03T06:20:54.466Z,1.17
2022-09-03T06:26:05.514Z,1.10
2022-09-03T06:31:08.656Z,1.17
2022-09-03T06:36:14.035Z,1.08
2022-09-03T06:41:18.844Z,1.02
2022-09-03T06:46:22.201Z,1.20
2022-09-03T06:51:28.698Z,1.20
2022-09-03T06:56:37.350Z,1.15
2022-09-03T07:01:45.181Z,0.98
2022-09-03T07:06:49.645Z,1.00
2022-09-03T07:11:52.028Z,1.15
2022-09-03T07:16:54.444Z,0.90
2022-09-03T07:27:00.641Z,1.13
2022-09-03T07:32:03.329Z,0.80
2022-09-03T07:37:05.755Z,0.80
2022-09-03T07:42:11.053Z,1.05
2022-09-03T07:47:14.984Z,0.80
2022-09-03T07:52:18.631Z,0.95
2022-09-03T07:57:22.922Z,1.50
2022-09-03T08:02:25.547Z,1.20
2022-09-03T08:07:29.698Z,1.23
2022-09-03T08:12:33.633Z,1.00
2022-09-03T08:17:36.051Z,0.95
2022-09-03T08:22:39.008Z,0.95
2022-09-03T08:27:42.860Z,1.30
2022-09-03T08:32:45.443Z,1.08
2022-09-03T08:37:52.628Z,1.30
2022-09-03T08:43:06.961Z,0.95
2022-09-03T08:48:11.822Z,0.82
2022-09-03T08:53:16.902Z,1.10
2022-09-03T08:58:21.527Z,1.50
2022-09-03T09:03:30.274Z,1.02
2022-09-03T09:08:35.403Z,1.10
2022-09-03T09:13:43.885Z,1.10
2022-09-03T09:18:57.466Z,1.10
2022-09-03T09:24:03.098Z,0.80
2022-09-03T09:29:10.171Z,0.80
2022-09-03T09:34:12.819Z,0.90
2022-09-03T09:39:16.623Z,0.95
2022-09-03T09:44:21.467Z,1.42
2022-09-03T09:49:29.811Z,1.08
2022-09-03T09:54:32.211Z,1.17
2022-09-03T09:59:37.925Z,1.00
2022-09-03T10:04:40.809Z,1.33
2022-09-03T10:09:43.226Z,0.90
2022-09-03T10:14:48.839Z,0.80
2022-09-03T10:20:14.322Z,0.90
2022-09-03T10:25:17.113Z,0.93
2022-09-03T10:30:21.115Z,1.00
2022-09-03T10:35:28.182Z,1.08
2022-09-03T10:40:35.905Z,0.98
2022-09-03T10:45:42.427Z,1.00
2022-09-03T10:50:48.596Z,1.02
2022-09-03T10:55:55.764Z,0.98
2022-09-03T11:01:02.645Z,0.95
2022-09-03T11:06:07.675Z,1.20
2022-09-03T11:11:12.882Z,1.05
2022-09-03T11:16:20.052Z,1.13
2022-09-03T11:21:24.213Z,0.85
2022-09-03T11:26:27.828Z,1.15
2022-09-03T11:31:35.817Z,0.95
2022-09-03T11:36:41.041Z,0.90
2022-09-03T11:41:46.164Z,0.88
2022-09-03T11:46:56.774Z,1.30
2022-09-03T11:52:00.707Z,1.27
2022-09-03T11:57:13.162Z,1.08
2022-09-03T12:02:24.242Z,1.13
2022-09-03T12:07:36.411Z,1.25
2022-09-03T12:12:46.528Z,1.20
2022-09-03T12:18:13.193Z,0.93
2022-09-03T12:23:26.977Z,1.40
2022-09-03T12:28:31.074Z,1.00
2022-09-03T12:33:35.821Z,1.38
2022-09-03T12:39:07.681Z,1.25
2022-09-03T12:44:01.028Z,1.10
2022-09-03T12:54:30.194Z,1.10
2022-09-03T12:59:34.133Z,1.20
2022-09-03T13:04:38.278Z,1.13
2022-09-03T13:09:41.850Z,1.35
2022-09-03T13:14:45.266Z,1.15
2022-09-03T13:19:59.441Z,1.08
2022-09-03T13:25:12.549Z,1.08
2022-09-03T13:30:17.122Z,1.40
2022-09-03T13:35:24.796Z,1.30
2022-09-03T13:40:33.017Z,1.33
2022-09-03T13:45:38.136Z,1.73
2022-09-03T13:50:45.132Z,1.02
2022-09-03T13:55:48.488Z,1.23
2022-09-03T14:00:53.327Z,1.25
2022-09-03T14:06:03.921Z,1.48
2022-09-03T14:11:15.094Z,1.30
2022-09-03T14:16:24.915Z,1.40
2022-09-03T14:21:30.805Z,1.30
2022-09-03T14:26:41.761Z,1.38
2022-09-03T14:32:02.027Z,1.23
2022-09-03T14:37:08.309Z,1.05
2022-09-03T14:42:17.254Z,1.30
2022-09-03T14:47:27.384Z,1.33
2022-09-03T14:52:52.521Z,1.25
2022-09-03T14:58:09.215Z,1.30
2022-09-03T15:03:21.559Z,1.52
2022-09-03T15:08:33.231Z,1.45
2022-09-03T15:18:42.018Z,1.20
2022-09-03T15:23:51.822Z,1.27
2022-09-03T15:29:03.574Z,2.67
2022-09-03T15:39:11.791Z,1.42
2022-09-03T15:44:19.670Z,1.63
2022-09-03T15:49:26.239Z,1.70
2022-09-03T15:54:36.633Z,2.33
2022-09-03T15:59:40.818Z,1.63
2022-09-03T16:05:05.693Z,1.60
2022-09-03T16:10:28.223Z,1.58
2022-09-03T16:15:34.924Z,1.42
2022-09-03T16:20:39.434Z,1.27
2022-09-03T16:25:49.554Z,1.60
2022-09-03T16:30:56.693Z,1.50
2022-09-03T16:36:02.684Z,3.13
2022-09-03T16:41:14.157Z,1.60
2022-09-03T16:46:21.716Z,1.65
2022-09-03T16:51:28.636Z,1.50
2022-09-03T16:56:47.907Z,1.27
2022-09-03T17:01:56.728Z,1.10
2022-09-03T17:07:05.241Z,1.30
2022-09-03T17:12:15.741Z,1.17
2022-09-03T17:17:23.012Z,1.73
2022-09-03T17:22:34.096Z,1.58
2022-09-03T17:27:52.886Z,1.63
2022-09-03T17:33:27.236Z,1.30
2022-09-03T17:38:38.371Z,1.35
2022-09-03T17:43:46.817Z,1.55
2022-09-03T17:48:51.329Z,1.50
2022-09-03T17:53:57.563Z,1.40
2022-09-03T17:59:06.744Z,1.38
2022-09-03T18:04:14.993Z,1.52
2022-09-03T18:09:24.115Z,2.78
2022-09-03T18:14:31.812Z,1.40
2022-09-03T18:19:52.951Z,1.90
2022-09-03T18:25:14.946Z,1.92
2022-09-03T18:30:36.959Z,2.00
2022-09-03T18:35:57.344Z,1.70
2022-09-03T18:41:22.097Z,2.35
2022-09-03T18:52:31.065Z,1.77
2022-09-03T18:58:00.453Z,1.90
2022-09-03T19:03:31.034Z,1.60
2022-09-03T19:08:54.323Z,1.80
2022-09-03T19:14:16.204Z,2.08
2022-09-03T19:19:57.885Z,1.77
2022-09-03T19:25:20.091Z,1.90
2022-09-03T19:30:42.961Z,2.17
2022-09-03T19:36:17.190Z,1.88
2022-09-03T19:41:41.869Z,2.17
2022-09-03T19:47:05.739Z,1.85
2022-09-03T19:52:29.795Z,2.05
2022-09-03T19:57:51.480Z,2.05
2022-09-03T20:03:11.915Z,1.73
2022-09-03T20:08:34.505Z,1.50
2022-09-03T20:13:53.554Z,1.95
2022-09-03T20:19:00.205Z,1.85
2022-09-03T20:24:11.200Z,2.08
2022-09-03T20:29:31.960Z,1.80
2022-09-03T20:34:40.906Z,2.15
2022-09-03T20:39:49.792Z,1.75
2022-09-03T20:44:54.308Z,1.45
2022-09-03T20:50:04.127Z,2.00
2022-09-03T20:55:12.846Z,1.33
2022-09-03T21:00:18.359Z,1.60
2022-09-03T21:05:23.787Z,1.67
2022-09-03T21:10:31.806Z,1.63
2022-09-03T21:15:38.114Z,1.50
2022-09-03T21:20:45.377Z,1.67
2022-09-03T21:25:52.618Z,1.63
2022-09-03T21:30:57.337Z,1.80
2022-09-03T21:36:04.219Z,1.60
2022-09-03T21:41:13.511Z,1.42
2022-09-03T21:46:16.833Z,1.52
2022-09-03T21:51:21.878Z,1.83
2022-09-03T21:56:47.182Z,1.33
2022-09-03T22:01:54.670Z,1.80
2022-09-03T22:07:04.712Z,1.92
2022-09-03T22:12:12.515Z,1.63
2022-09-03T22:17:16.761Z,2.17
2022-09-03T22:22:22.638Z,2.40
2022-09-03T22:27:30.385Z,1.95
2022-09-03T22:32:37.469Z,1.70
2022-09-03T22:37:47.154Z,1.83
2022-09-03T22:43:06.963Z,1.77
2022-09-03T22:48:15.631Z,1.60
2022-09-03T22:53:23.981Z,1.83
2022-09-03T22:58:30.617Z,1.88
2022-09-03T23:03:37.246Z,1.90
2022-09-03T23:08:42.165Z,1.80
2022-09-03T23:13:47.788Z,2.13
2022-09-03T23:18:51.368Z,1.65
2022-09-03T23:23:57.571Z,2.38
2022-09-03T23:29:05.516Z,2.08
2022-09-03T23:34:09.061Z,1.60
2022-09-03T23:39:16.270Z,2.08
2022-09-03T23:44:32.313Z,1.80
2022-09-03T23:49:39.075Z,1.92
2022-09-03T23:54:44.673Z,2.13
2022-09-03T23:59:58.886Z,2.00
